createdAt,value
2019-03-16T00:00:01.393Z,2.50
2019-03-16T00:02:28.750Z,2.08
2019-03-16T00:04:56.225Z,2.10
2019-03-16T00:07:32.931Z,2.00
2019-03-16T00:09:52.546Z,1.98
2019-03-16T00:12:21.360Z,2.20
2019-03-16T00:14:48.649Z,1.92
2019-03-16T00:17:23.099Z,2.42
2019-03-16T00:19:44.963Z,2.10
2019-03-16T00:22:12.469Z,1.75
2019-03-16T00:24:39.753Z,1.87
2019-03-16T00:27:07.070Z,2.10
2019-03-16T00:29:34.411Z,1.70
2019-03-16T00:32:12.772Z,1.80
2019-03-16T00:34:30.684Z,1.62
2019-03-16T00:36:58.326Z,1.60
2019-03-16T00:39:25.638Z,1.60
2019-03-16T00:41:52.911Z,1.30
2019-03-16T00:44:20.388Z,1.90
2019-03-16T00:46:47.703Z,1.72
2019-03-16T00:49:14.976Z,1.30
2019-03-16T00:51:42.270Z,1.42
2019-03-16T00:54:09.614Z,1.40
2019-03-16T00:56:36.895Z,1.17
2019-03-16T00:59:04.371Z,1.20
2019-03-16T01:01:31.651Z,1.47
2019-03-16T01:03:58.933Z,1.20
2019-03-16T01:06:26.269Z,1.15
2019-03-16T01:08:54.689Z,1.00
2019-03-16T01:11:22.930Z,1.40
2019-03-16T01:13:50.980Z,1.10
2019-03-16T01:16:18.311Z,1.10
2019-03-16T01:18:45.614Z,1.27
2019-03-16T01:21:12.934Z,1.40
2019-03-16T01:23:40.279Z,1.22
2019-03-16T01:26:07.565Z,1.20
2019-03-16T01:28:34.886Z,0.90
2019-03-16T01:31:02.162Z,1.50
2019-03-16T01:33:29.452Z,0.98
2019-03-16T01:35:56.753Z,1.10
2019-03-16T01:38:24.095Z,1.12
2019-03-16T01:40:51.445Z,1.47
2019-03-16T01:43:18.797Z,1.12
2019-03-16T01:45:46.122Z,1.37
2019-03-16T01:48:13.437Z,1.25
2019-03-16T01:50:40.738Z,1.10
2019-03-16T01:53:08.021Z,1.52
2019-03-16T01:55:35.303Z,1.32
2019-03-16T01:58:02.693Z,1.10
2019-03-16T02:00:29.977Z,1.07
2019-03-16T02:02:57.261Z,1.37
2019-03-16T02:05:24.586Z,1.12
2019-03-16T02:07:51.932Z,1.40
2019-03-16T02:10:19.210Z,1.42
2019-03-16T02:12:46.555Z,1.50
2019-03-16T02:15:14.166Z,1.42
2019-03-16T02:17:41.519Z,1.17
2019-03-16T02:20:10.347Z,1.32
2019-03-16T02:22:37.631Z,1.20
2019-03-16T02:25:05.572Z,1.20
2019-03-16T02:27:32.856Z,1.30
2019-03-16T02:30:00.527Z,1.22
2019-03-16T02:32:27.936Z,1.40
2019-03-16T02:34:55.210Z,1.12
2019-03-16T02:37:22.501Z,1.25
2019-03-16T02:39:49.829Z,1.07
2019-03-16T02:42:17.184Z,1.22
2019-03-16T02:44:44.506Z,1.40
2019-03-16T02:47:11.860Z,1.22
2019-03-16T02:49:39.231Z,0.98
2019-03-16T02:52:06.572Z,1.40
2019-03-16T02:54:33.941Z,1.10
2019-03-16T02:57:01.282Z,1.32
2019-03-16T02:59:28.581Z,1.32
2019-03-16T03:01:55.925Z,1.10
2019-03-16T03:04:23.907Z,1.50
2019-03-16T03:06:51.256Z,1.10
2019-03-16T03:09:18.573Z,1.10
2019-03-16T03:11:45.931Z,0.90
2019-03-16T03:14:13.309Z,1.00
2019-03-16T03:16:40.664Z,1.22
2019-03-16T03:19:07.935Z,0.90
2019-03-16T03:21:35.242Z,1.10
2019-03-16T03:24:02.574Z,1.00
2019-03-16T03:26:29.877Z,1.00
2019-03-16T03:28:57.333Z,1.00
2019-03-16T03:31:24.639Z,1.00
2019-03-16T03:34:00.437Z,0.88
2019-03-16T03:36:20.978Z,0.90
2019-03-16T03:38:48.253Z,0.88
2019-03-16T03:41:15.547Z,0.95
2019-03-16T03:43:42.834Z,0.88
2019-03-16T03:46:10.238Z,0.95
2019-03-16T03:48:37.524Z,0.90
2019-03-16T03:51:04.876Z,0.93
2019-03-16T03:53:32.196Z,0.82
2019-03-16T03:55:59.748Z,0.80
2019-03-16T03:58:27.033Z,0.80
2019-03-16T04:00:54.841Z,1.02
2019-03-16T04:03:22.135Z,0.90
2019-03-16T04:05:49.531Z,1.02
2019-03-16T04:08:16.903Z,0.75
2019-03-16T04:10:44.245Z,1.07
2019-03-16T04:13:11.549Z,0.80
2019-03-16T04:15:38.834Z,0.70
2019-03-16T04:18:06.105Z,0.90
2019-03-16T04:20:33.494Z,1.00
2019-03-16T04:23:00.846Z,0.68
2019-03-16T04:25:29.834Z,0.80
2019-03-16T04:27:57.117Z,0.80
2019-03-16T04:30:24.401Z,1.00
2019-03-16T04:32:51.803Z,0.82
2019-03-16T04:35:19.079Z,0.93
2019-03-16T04:37:46.436Z,0.90
2019-03-16T04:40:13.831Z,1.00
2019-03-16T04:42:41.221Z,0.80
2019-03-16T04:45:09.799Z,0.70
2019-03-16T04:47:37.134Z,0.65
2019-03-16T04:50:08.719Z,0.85
2019-03-16T04:52:35.990Z,0.90
2019-03-16T04:55:03.269Z,0.78
2019-03-16T04:57:30.588Z,0.80
2019-03-16T04:59:57.859Z,0.90
2019-03-16T05:02:25.147Z,0.60
2019-03-16T05:04:52.497Z,0.75
2019-03-16T05:07:19.788Z,0.60
2019-03-16T05:09:47.243Z,0.70
2019-03-16T05:12:14.877Z,0.80
2019-03-16T05:14:42.182Z,0.80
2019-03-16T05:17:09.460Z,0.90
2019-03-16T05:19:36.726Z,0.80
2019-03-16T05:22:04.078Z,0.78
2019-03-16T05:24:31.376Z,0.90
2019-03-16T05:26:59.010Z,0.60
2019-03-16T05:29:26.292Z,0.60
2019-03-16T05:31:53.556Z,0.80
2019-03-16T05:34:22.105Z,0.95
2019-03-16T05:36:49.399Z,0.70
2019-03-16T05:39:16.962Z,0.90
2019-03-16T05:41:44.252Z,0.80
2019-03-16T05:44:11.627Z,0.70
2019-03-16T05:46:38.912Z,0.60
2019-03-16T05:49:06.266Z,0.65
2019-03-16T05:51:36.525Z,0.80
2019-03-16T05:54:04.036Z,0.70
2019-03-16T05:56:31.425Z,0.70
2019-03-16T05:59:01.563Z,0.70
2019-03-16T06:01:28.883Z,0.70
2019-03-16T06:03:56.169Z,0.60
2019-03-16T06:06:23.643Z,0.70
2019-03-16T06:08:50.928Z,0.70
2019-03-16T06:11:18.225Z,0.60
2019-03-16T06:13:46.035Z,0.50
2019-03-16T06:16:13.308Z,0.60
2019-03-16T06:18:40.585Z,0.65
2019-03-16T06:21:07.890Z,0.70
2019-03-16T06:23:35.705Z,0.68
2019-03-16T06:26:02.989Z,0.50
2019-03-16T06:28:30.292Z,0.70
2019-03-16T06:30:57.575Z,0.62
2019-03-16T06:33:24.909Z,0.60
2019-03-16T06:35:52.185Z,0.90
2019-03-16T06:38:19.497Z,0.72
2019-03-16T06:40:46.781Z,0.60
2019-03-16T06:43:14.160Z,0.70
2019-03-16T06:45:41.445Z,0.60
2019-03-16T06:48:08.726Z,0.60
2019-03-16T06:50:36.082Z,0.50
2019-03-16T06:53:03.595Z,0.75
2019-03-16T06:55:30.917Z,0.60
2019-03-16T06:57:58.204Z,0.68
2019-03-16T07:00:25.489Z,0.45
2019-03-16T07:02:52.946Z,0.60
2019-03-16T07:05:23.466Z,0.57
2019-03-16T07:07:49.200Z,0.70
2019-03-16T07:10:16.484Z,0.90
2019-03-16T07:12:43.941Z,0.60
2019-03-16T07:15:14.706Z,0.80
2019-03-16T07:17:42.000Z,0.50
2019-03-16T07:20:10.316Z,6.80
2019-03-16T07:22:37.649Z,37.00
2019-03-16T07:25:05.369Z,46.00
2019-03-16T07:27:32.663Z,32.10
2019-03-16T07:30:00.074Z,27.60
2019-03-16T07:32:27.653Z,27.37
2019-03-16T07:34:54.992Z,15.85
2019-03-16T07:37:22.315Z,17.40
2019-03-16T07:39:49.759Z,18.02
2019-03-16T07:42:17.061Z,14.38
2019-03-16T07:44:44.416Z,12.93
2019-03-16T07:47:11.714Z,12.05
2019-03-16T07:49:39.189Z,11.85
2019-03-16T07:52:06.590Z,10.60
2019-03-16T07:54:33.872Z,9.95
2019-03-16T07:57:01.579Z,9.58
2019-03-16T07:59:28.938Z,9.78
2019-03-16T08:01:56.212Z,9.35
2019-03-16T08:04:23.503Z,8.38
2019-03-16T08:06:50.796Z,6.90
2019-03-16T08:09:18.175Z,7.28
2019-03-16T08:11:45.729Z,7.03
2019-03-16T08:14:13.126Z,6.83
2019-03-16T08:16:40.433Z,6.75
2019-03-16T08:19:07.708Z,6.22
2019-03-16T08:21:35.006Z,6.17
2019-03-16T08:24:02.349Z,6.35
2019-03-16T08:26:29.641Z,5.40
2019-03-16T08:28:59.101Z,5.58
2019-03-16T08:31:26.145Z,4.95
2019-03-16T08:33:53.430Z,4.50
2019-03-16T08:36:20.816Z,4.35
2019-03-16T08:38:48.110Z,4.28
2019-03-16T08:41:15.463Z,4.72
2019-03-16T08:43:42.754Z,4.00
2019-03-16T08:46:10.078Z,4.22
2019-03-16T08:48:37.421Z,3.67
2019-03-16T08:51:05.004Z,3.12
2019-03-16T08:53:32.354Z,3.15
2019-03-16T08:55:59.641Z,3.22
2019-03-16T08:58:26.915Z,3.15
2019-03-16T09:00:54.228Z,3.08
2019-03-16T09:03:21.586Z,2.92
2019-03-16T09:05:48.890Z,3.17
2019-03-16T09:08:16.164Z,2.58
2019-03-16T09:10:43.438Z,2.37
2019-03-16T09:13:10.730Z,2.55
2019-03-16T09:15:37.999Z,2.33
2019-03-16T09:18:05.697Z,2.50
2019-03-16T09:20:32.965Z,2.30
2019-03-16T09:23:00.251Z,2.10
2019-03-16T09:25:27.949Z,2.50
2019-03-16T09:27:55.244Z,2.15
2019-03-16T09:30:22.566Z,1.80
2019-03-16T09:32:49.878Z,2.33
2019-03-16T09:35:17.164Z,2.08
2019-03-16T09:37:44.436Z,1.98
2019-03-16T09:40:11.740Z,2.15
2019-03-16T09:42:39.021Z,1.82
2019-03-16T09:45:07.839Z,1.95
2019-03-16T09:47:35.123Z,1.95
2019-03-16T09:50:02.459Z,1.72
2019-03-16T09:52:29.813Z,1.77
2019-03-16T09:54:57.085Z,1.30
2019-03-16T09:57:24.372Z,1.77
2019-03-16T09:59:51.661Z,1.85
2019-03-16T10:02:19.010Z,1.80
2019-03-16T10:04:46.304Z,1.42
2019-03-16T10:07:13.578Z,1.40
2019-03-16T10:09:41.073Z,1.77
2019-03-16T10:12:08.360Z,1.40
2019-03-16T10:14:37.246Z,1.50
2019-03-16T10:17:04.797Z,1.35
2019-03-16T10:19:32.087Z,1.50
2019-03-16T10:21:59.446Z,1.60
2019-03-16T10:24:26.799Z,1.40
2019-03-16T10:26:54.080Z,1.42
2019-03-16T10:29:21.435Z,1.37
2019-03-16T10:31:48.791Z,1.40
2019-03-16T10:34:16.138Z,1.40
2019-03-16T10:36:43.798Z,1.27
2019-03-16T10:39:11.083Z,1.50
2019-03-16T10:41:38.358Z,1.57
2019-03-16T10:44:05.660Z,1.20
2019-03-16T10:46:32.985Z,1.10
2019-03-16T10:49:00.302Z,1.30
2019-03-16T10:51:27.863Z,1.52
2019-03-16T10:53:55.475Z,1.25
2019-03-16T10:56:22.755Z,1.32
2019-03-16T10:58:56.603Z,1.22
2019-03-16T11:01:19.085Z,1.30
2019-03-16T11:03:47.927Z,1.30
2019-03-16T11:06:15.195Z,1.10
2019-03-16T11:08:42.563Z,1.15
2019-03-16T11:11:10.287Z,1.00
2019-03-16T11:13:37.563Z,1.15
2019-03-16T11:16:04.893Z,1.12
2019-03-16T11:18:32.171Z,1.30
2019-03-16T11:20:59.455Z,1.10
2019-03-16T11:23:26.746Z,1.00
2019-03-16T11:25:54.430Z,1.10
2019-03-16T11:28:21.711Z,1.02
2019-03-16T11:30:49.050Z,1.22
2019-03-16T11:33:16.411Z,1.20
2019-03-16T11:35:43.703Z,1.02
2019-03-16T11:38:11.028Z,1.30
2019-03-16T11:40:38.311Z,1.30
2019-03-16T11:43:05.593Z,1.17
2019-03-16T11:45:33.073Z,1.30
2019-03-16T11:48:00.370Z,1.45
2019-03-16T11:50:27.652Z,1.30
2019-03-16T11:52:55.879Z,1.55
2019-03-16T11:55:23.222Z,1.20
2019-03-16T11:57:50.506Z,1.40
2019-03-16T12:00:17.783Z,1.05
2019-03-16T12:02:45.093Z,1.30
2019-03-16T12:05:12.786Z,1.10
2019-03-16T12:07:40.140Z,1.30
2019-03-16T12:10:13.872Z,1.10
2019-03-16T12:12:41.135Z,1.12
2019-03-16T12:15:09.653Z,1.27
2019-03-16T12:17:37.005Z,0.93
2019-03-16T12:20:17.715Z,1.25
2019-03-16T12:22:43.731Z,1.30
2019-03-16T12:25:13.860Z,1.17
2019-03-16T12:27:41.215Z,1.00
2019-03-16T12:30:10.091Z,1.30
2019-03-16T12:32:37.433Z,1.00
2019-03-16T12:35:05.895Z,1.10
2019-03-16T12:37:33.263Z,1.30
2019-03-16T12:40:00.646Z,1.20
2019-03-16T12:42:28.000Z,0.93
2019-03-16T12:44:55.421Z,1.30
2019-03-16T12:47:22.754Z,1.10
2019-03-16T12:49:50.102Z,1.10
2019-03-16T12:52:17.372Z,1.15
2019-03-16T12:54:44.651Z,1.07
2019-03-16T12:57:12.479Z,1.10
2019-03-16T12:59:46.978Z,1.10
2019-03-16T13:02:08.807Z,1.27
2019-03-16T13:04:36.111Z,1.30
2019-03-16T13:07:03.608Z,1.02
2019-03-16T13:09:30.890Z,1.02
2019-03-16T13:11:58.177Z,1.27
2019-03-16T13:14:25.457Z,1.40
2019-03-16T13:16:52.921Z,1.20
2019-03-16T13:19:20.271Z,1.30
2019-03-16T13:21:47.774Z,1.25
2019-03-16T13:24:15.037Z,1.02
2019-03-16T13:26:42.402Z,1.00
2019-03-16T13:29:09.673Z,1.22
2019-03-16T13:31:37.010Z,0.95
2019-03-16T13:34:04.357Z,1.17
2019-03-16T13:36:31.641Z,1.17
2019-03-16T13:38:59.045Z,1.00
2019-03-16T13:41:26.341Z,1.17
2019-03-16T13:43:53.927Z,1.30
2019-03-16T13:46:21.334Z,1.22
2019-03-16T13:48:48.851Z,1.20
2019-03-16T13:51:16.186Z,1.20
2019-03-16T13:53:43.566Z,1.30
2019-03-16T13:56:10.947Z,1.20
2019-03-16T13:58:40.642Z,1.20
2019-03-16T14:01:07.509Z,1.30
2019-03-16T14:03:34.841Z,1.10
2019-03-16T14:06:02.396Z,1.00
2019-03-16T14:08:29.760Z,1.30
2019-03-16T14:10:57.112Z,1.07
2019-03-16T14:13:24.787Z,1.00
2019-03-16T14:15:52.165Z,1.10
2019-03-16T14:18:19.471Z,1.10
2019-03-16T14:20:48.022Z,1.20
2019-03-16T14:23:15.767Z,1.10
2019-03-16T14:25:43.424Z,1.07
2019-03-16T14:28:10.802Z,1.40
2019-03-16T14:30:41.324Z,1.37
2019-03-16T14:33:07.169Z,1.20
2019-03-16T14:35:34.441Z,1.10
2019-03-16T14:38:01.715Z,1.27
2019-03-16T14:40:29.254Z,1.17
2019-03-16T14:42:56.713Z,1.22
2019-03-16T14:45:24.475Z,1.67
2019-03-16T14:47:51.846Z,1.30
2019-03-16T14:50:19.892Z,1.12
2019-03-16T14:52:47.156Z,1.17
2019-03-16T14:55:18.093Z,1.20
2019-03-16T14:57:45.372Z,1.22
2019-03-16T15:00:13.952Z,1.32
2019-03-16T15:02:41.234Z,1.10
2019-03-16T15:05:08.886Z,1.15
2019-03-16T15:07:36.165Z,1.27
2019-03-16T15:10:05.022Z,1.37
2019-03-16T15:12:32.300Z,1.25
2019-03-16T15:14:59.694Z,1.10
2019-03-16T15:17:27.173Z,1.20
2019-03-16T15:19:54.527Z,1.27
2019-03-16T15:22:21.807Z,1.30
2019-03-16T15:24:49.161Z,1.05
2019-03-16T15:27:16.991Z,1.20
2019-03-16T15:29:44.466Z,1.40
2019-03-16T15:32:11.750Z,1.10
2019-03-16T15:34:39.100Z,1.55
2019-03-16T15:37:06.394Z,1.20
2019-03-16T15:39:33.754Z,1.20
2019-03-16T15:42:01.037Z,1.20
2019-03-16T15:44:28.330Z,1.52
2019-03-16T15:46:55.616Z,1.40
2019-03-16T15:49:23.211Z,1.30
2019-03-16T15:51:50.504Z,1.60
2019-03-16T15:54:17.778Z,1.30
2019-03-16T15:56:45.079Z,1.40
2019-03-16T15:59:12.371Z,1.35
2019-03-16T16:01:40.650Z,1.40
2019-03-16T16:04:08.413Z,1.55
2019-03-16T16:06:35.718Z,1.52
2019-03-16T16:09:03.134Z,1.40
2019-03-16T16:11:30.410Z,1.57
2019-03-16T16:13:57.691Z,1.40
2019-03-16T16:16:24.983Z,1.25
2019-03-16T16:18:52.465Z,1.52
2019-03-16T16:21:19.728Z,1.37
2019-03-16T16:23:48.160Z,1.50
2019-03-16T16:26:15.750Z,1.50
2019-03-16T16:28:43.044Z,1.72
2019-03-16T16:31:16.278Z,1.65
2019-03-16T16:33:39.608Z,1.67
2019-03-16T16:36:08.512Z,1.55
2019-03-16T16:38:35.907Z,1.40
2019-03-16T16:41:03.225Z,1.52
2019-03-16T16:43:30.573Z,2.22
2019-03-16T16:45:57.867Z,1.85
2019-03-16T16:48:25.149Z,1.77
2019-03-16T16:50:52.435Z,1.60
2019-03-16T16:53:20.299Z,2.00
2019-03-16T16:55:47.567Z,1.80
2019-03-16T16:58:14.849Z,1.65
2019-03-16T17:00:42.142Z,1.77
2019-03-16T17:03:09.430Z,1.72
2019-03-16T17:05:36.712Z,1.90
2019-03-16T17:08:04.073Z,1.55
2019-03-16T17:10:31.785Z,1.62
2019-03-16T17:12:59.068Z,1.77
2019-03-16T17:15:26.346Z,1.72
2019-03-16T17:17:53.746Z,1.90
2019-03-16T17:20:21.098Z,1.75
2019-03-16T17:22:48.386Z,2.25
2019-03-16T17:25:15.863Z,2.00
2019-03-16T17:27:43.210Z,1.80
2019-03-16T17:30:13.387Z,1.75
2019-03-16T17:32:41.226Z,2.00
2019-03-16T17:35:09.699Z,1.92
2019-03-16T17:37:36.973Z,2.20
2019-03-16T17:40:05.856Z,2.00
2019-03-16T17:42:33.162Z,2.10
2019-03-16T17:45:00.529Z,1.92
2019-03-16T17:47:28.117Z,2.15
2019-03-16T17:49:55.399Z,2.22
2019-03-16T17:52:22.720Z,2.30
2019-03-16T17:54:49.992Z,2.40
2019-03-16T17:57:17.270Z,2.45
2019-03-16T17:59:44.553Z,2.35
2019-03-16T18:02:11.846Z,2.40
2019-03-16T18:04:39.231Z,2.50
2019-03-16T18:07:06.576Z,2.25
2019-03-16T18:09:33.879Z,2.33
2019-03-16T18:12:01.231Z,2.47
2019-03-16T18:14:28.572Z,2.60
2019-03-16T18:16:55.861Z,2.62
2019-03-16T18:19:24.155Z,2.52
2019-03-16T18:21:51.545Z,2.40
2019-03-16T18:24:18.905Z,2.60
2019-03-16T18:26:46.286Z,2.58
2019-03-16T18:29:13.685Z,2.70
2019-03-16T18:31:41.045Z,2.95
2019-03-16T18:34:08.357Z,2.98
2019-03-16T18:36:35.643Z,2.55
2019-03-16T18:39:02.981Z,2.62
2019-03-16T18:41:30.291Z,3.10
2019-03-16T18:43:57.634Z,3.02
2019-03-16T18:46:25.127Z,3.35
2019-03-16T18:48:52.471Z,2.75
2019-03-16T18:51:21.006Z,2.50
2019-03-16T18:53:48.341Z,3.10
2019-03-16T18:56:15.690Z,2.75
2019-03-16T18:58:43.029Z,2.42
2019-03-16T19:01:10.318Z,2.98
2019-03-16T19:03:37.642Z,2.90
2019-03-16T19:06:04.960Z,2.90
2019-03-16T19:08:32.264Z,2.65
2019-03-16T19:10:59.630Z,3.05
2019-03-16T19:13:26.987Z,2.83
2019-03-16T19:15:54.382Z,3.35
2019-03-16T19:18:21.665Z,2.92
2019-03-16T19:20:49.106Z,3.17
2019-03-16T19:23:16.666Z,3.12
2019-03-16T19:25:44.023Z,3.12
2019-03-16T19:28:11.450Z,3.42
2019-03-16T19:30:38.749Z,3.30
2019-03-16T19:33:06.099Z,3.80
2019-03-16T19:35:33.387Z,3.70
2019-03-16T19:38:00.686Z,3.62
2019-03-16T19:40:28.081Z,3.85
2019-03-16T19:42:55.349Z,3.52
2019-03-16T19:45:22.642Z,3.58
2019-03-16T19:47:50.008Z,3.70
2019-03-16T19:50:17.349Z,3.90
2019-03-16T19:52:44.716Z,3.70
2019-03-16T19:55:12.935Z,3.60
2019-03-16T19:57:40.217Z,3.90
2019-03-16T20:00:09.381Z,3.50
2019-03-16T20:02:46.196Z,3.77
2019-03-16T20:05:07.344Z,3.80
2019-03-16T20:07:34.640Z,3.77
2019-03-16T20:10:01.965Z,3.80
2019-03-16T20:12:29.276Z,3.47
2019-03-16T20:14:56.569Z,3.98
2019-03-16T20:17:23.928Z,3.92
2019-03-16T20:19:51.287Z,4.50
2019-03-16T20:22:18.579Z,4.37
2019-03-16T20:24:45.863Z,4.28
2019-03-16T20:27:13.210Z,4.22
2019-03-16T20:29:40.568Z,4.17
2019-03-16T20:32:07.846Z,4.45
2019-03-16T20:34:35.122Z,4.72
2019-03-16T20:37:02.472Z,4.28
2019-03-16T20:39:29.815Z,4.58
2019-03-16T20:41:57.170Z,4.60
2019-03-16T20:44:24.452Z,4.45
2019-03-16T20:46:51.872Z,4.47
2019-03-16T20:49:19.153Z,4.33
2019-03-16T20:51:46.469Z,4.28
2019-03-16T20:54:13.853Z,4.47
2019-03-16T20:56:41.142Z,4.50
2019-03-16T20:59:08.818Z,4.42
2019-03-16T21:01:36.917Z,4.42
2019-03-16T21:04:04.281Z,4.37
2019-03-16T21:06:31.585Z,4.78
2019-03-16T21:09:03.267Z,4.85
2019-03-16T21:11:28.252Z,4.78
2019-03-16T21:13:55.634Z,4.45
2019-03-16T21:16:22.901Z,4.80
2019-03-16T21:18:50.208Z,4.92
2019-03-16T21:21:17.489Z,5.28
2019-03-16T21:23:44.775Z,4.90
2019-03-16T21:26:12.130Z,4.83
2019-03-16T21:28:39.421Z,4.55
2019-03-16T21:31:06.778Z,5.58
2019-03-16T21:33:34.135Z,5.28
2019-03-16T21:36:01.479Z,5.40
2019-03-16T21:38:28.756Z,5.20
2019-03-16T21:40:56.253Z,5.47
2019-03-16T21:43:23.606Z,5.28
2019-03-16T21:45:51.054Z,5.55
2019-03-16T21:48:18.384Z,5.30
2019-03-16T21:50:45.737Z,5.60
2019-03-16T21:53:13.060Z,5.47
2019-03-16T21:55:40.447Z,5.28
2019-03-16T21:58:07.712Z,5.33
2019-03-16T22:00:34.998Z,5.42
2019-03-16T22:03:02.354Z,5.33
2019-03-16T22:05:29.815Z,5.80
2019-03-16T22:07:57.414Z,5.30
2019-03-16T22:10:24.712Z,5.33
2019-03-16T22:12:52.047Z,5.62
2019-03-16T22:15:19.339Z,5.83
2019-03-16T22:17:46.694Z,5.83
2019-03-16T22:20:15.555Z,5.50
2019-03-16T22:22:42.946Z,5.33
2019-03-16T22:25:10.597Z,6.08
2019-03-16T22:27:37.946Z,6.03
2019-03-16T22:30:06.037Z,5.45
2019-03-16T22:32:33.383Z,6.30
2019-03-16T22:35:00.678Z,5.87
2019-03-16T22:37:28.047Z,6.25
2019-03-16T22:39:55.503Z,6.03
2019-03-16T22:42:22.778Z,5.92
2019-03-16T22:44:50.122Z,6.12
2019-03-16T22:47:17.406Z,5.85
2019-03-16T22:49:44.695Z,6.53
2019-03-16T22:52:11.978Z,6.53
2019-03-16T22:54:39.279Z,6.05
2019-03-16T22:57:06.602Z,6.17
2019-03-16T22:59:33.915Z,6.17
2019-03-16T23:02:01.344Z,6.03
2019-03-16T23:04:28.671Z,6.60
2019-03-16T23:06:55.947Z,6.33
2019-03-16T23:09:23.255Z,7.12
2019-03-16T23:11:50.598Z,6.50
2019-03-16T23:14:17.890Z,6.25
2019-03-16T23:16:45.163Z,6.53
2019-03-16T23:19:12.471Z,6.80
2019-03-16T23:21:39.756Z,7.10
2019-03-16T23:24:07.058Z,6.45
2019-03-16T23:26:38.839Z,6.28
2019-03-16T23:29:03.451Z,6.55
2019-03-16T23:31:30.768Z,6.42
2019-03-16T23:33:58.093Z,6.83
2019-03-16T23:36:25.382Z,6.40
2019-03-16T23:38:52.762Z,7.00
2019-03-16T23:41:20.048Z,6.85
2019-03-16T23:43:47.344Z,6.75
2019-03-16T23:46:14.726Z,6.83
2019-03-16T23:48:42.071Z,6.45
2019-03-16T23:51:09.349Z,6.80
2019-03-16T23:53:36.638Z,6.83
2019-03-16T23:56:03.933Z,7.12
2019-03-16T23:58:31.287Z,6.60
